Time;durP1;ratioP1;P1;durP2;ratioP2;P2;SDS_P1;SDS_P2;PMS_P1;PMS_P2;Temp;Humidity;BMP_temperature;BMP_pressure;BME280_temperature;BME280_humidity;BME280_pressure;Samples;Min_cycle;Max_cycle;Signal;HPM_P1;HPM_P2
2022/08/20 00:01:24;;;;;;;20.25;6.00;;;;;;;;;;4803927;29;20103;-73
2022/08/20 00:03:50;;;;;;;35.55;6.47;;;20.20;99.90;;;;;;4817422;29;20074;-73
2022/08/20 00:06:22;;;;;;;24.17;6.07;;;19.70;99.90;;;;;;4808612;29;20110;-72
2022/08/20 00:08:47;;;;;;;;;;;19.40;99.90;;;;;;4819109;29;20051;-73
2022/08/20 00:11:18;;;;;;;21.20;6.13;;;18.60;99.90;;;;;;4803850;29;19921;-72
2022/08/20 00:13:50;;;;;;;24.20;5.80;;;19.40;99.90;;;;;;4833473;29;20112;-72
2022/08/20 00:16:19;;;;;;;20.20;5.53;;;18.80;99.90;;;;;;4804902;29;20122;-72
2022/08/20 00:18:46;;;;;;;19.98;5.95;;;18.70;99.90;;;;;;4803967;29;20051;-72
2022/08/20 00:21:14;;;;;;;21.52;5.18;;;19.20;99.90;;;;;;4803670;29;20050;-73
2022/08/20 00:23:42;;;;;;;16.40;5.57;;;19.30;99.90;;;;;;4831898;29;20107;-73
2022/08/20 00:26:10;;;;;;;21.83;5.68;;;19.50;99.90;;;;;;4803489;29;20141;-72
2022/08/20 00:28:36;;;;;;;24.60;5.45;;;;;;;;;;4803071;29;20480;-72
2022/08/20 00:31:04;;;;;;;18.08;5.63;;;19.50;99.90;;;;;;4803704;29;20039;-73
2022/08/20 00:33:30;;;;;;;17.85;4.97;;;19.10;99.90;;;;;;4803720;29;20046;-72
2022/08/20 00:35:56;;;;;;;19.67;5.40;;;19.40;99.90;;;;;;4813468;29;20544;-73
2022/08/20 00:38:24;;;;;;;14.50;5.07;;;19.30;99.70;;;;;;4803635;29;20078;-73
2022/08/20 00:40:55;;;;;;;20.92;4.85;;;20.30;99.90;;;;;;4802572;29;20046;-72
2022/08/20 00:43:30;;;;;;;24.27;5.47;;;20.20;98.80;;;;;;4803482;29;20507;-72
2022/08/20 00:45:58;;;;;;;21.98;4.60;;;19.20;99.40;;;;;;4829760;29;20054;-73
2022/08/20 00:48:27;;;;;;;17.52;5.28;;;18.10;99.90;;;;;;4833207;29;21597;-72
2022/08/20 00:51:00;;;;;;;18.15;4.40;;;19.80;99.90;;;;;;4827810;29;20078;-73
2022/08/20 00:53:27;;;;;;;20.70;4.55;;;18.00;99.90;;;;;;4820078;29;20446;-73
2022/08/20 00:55:54;;;;;;;21.45;4.65;;;18.60;99.90;;;;;;4803974;29;20099;-73
2022/08/20 00:58:20;;;;;;;17.98;5.32;;;18.60;99.00;;;;;;4836552;29;20475;-73
2022/08/20 01:00:47;;;;;;;22.50;4.72;;;18.00;99.90;;;;;;4834871;29;20104;-73
2022/08/20 01:03:17;;;;;;;14.75;4.00;;;19.40;99.00;;;;;;4836610;29;20065;-73
2022/08/20 01:05:47;;;;;;;15.73;4.50;;;18.90;98.90;;;;;;4820650;29;20043;-72
2022/08/20 01:08:16;;;;;;;18.38;4.13;;;19.80;99.90;;;;;;4806944;29;20042;-72
2022/08/20 01:10:44;;;;;;;19.83;3.97;;;18.80;98.60;;;;;;4807946;29;20061;-73
2022/08/20 01:13:13;;;;;;;23.73;6.60;;;17.80;99.90;;;;;;4821191;29;20514;-72
2022/08/20 01:15:43;;;;;;;21.13;4.10;;;18.90;98.50;;;;;;4822880;29;20086;-73
2022/08/20 01:18:17;;;;;;;16.35;3.97;;;20.00;99.50;;;;;;4806660;29;20484;-73
2022/08/20 01:20:50;;;;;;;23.30;4.13;;;18.90;98.50;;;;;;4834975;29;20054;-72
2022/08/20 01:23:31;;;;;;;21.42;4.63;;;19.20;99.90;;;;;;4829066;29;20046;-73
2022/08/20 01:26:17;;;;;;;26.02;4.28;;;19.80;99.90;;;;;;4806298;29;20043;-73
2022/08/20 01:28:49;;;;;;;22.08;4.03;;;18.80;99.90;;;;;;4835069;29;20503;-72
2022/08/20 01:31:19;;;;;;;19.23;4.10;;;19.60;99.90;;;;;;4806463;29;20093;-72
2022/08/20 01:33:46;;;;;;;22.23;3.65;;;;;;;;;;4806685;29;20396;-73
2022/08/20 01:36:13;;;;;;;20.52;3.75;;;18.60;99.90;;;;;;4806189;29;20047;-72
2022/08/20 01:38:39;;;;;;;17.45;4.13;;;;;;;;;;4806478;29;21381;-73
2022/08/20 01:41:23;;;;;;;27.33;3.42;;;17.90;99.90;;;;;;4806081;29;20042;-73
2022/08/20 01:43:55;;;;;;;15.35;3.28;;;17.60;99.90;;;;;;4806274;29;20046;-72
2022/08/20 01:46:26;;;;;;;19.98;3.30;;;19.10;99.90;;;;;;4806134;29;20062;-73
2022/08/20 01:48:53;;;;;;;18.35;3.58;;;17.60;99.90;;;;;;4806106;29;20511;-73
2022/08/20 01:51:26;;;;;;;17.50;3.47;;;19.20;99.90;;;;;;4805705;29;20077;-73
2022/08/20 01:53:54;;;;;;;21.13;3.70;;;18.70;97.90;;;;;;4835699;29;20058;-72
2022/08/20 01:56:27;;;;;;;18.60;3.28;;;18.60;97.90;;;;;;4805479;29;20508;-72
2022/08/20 01:58:56;;;;;;;21.77;3.63;;;19.70;99.90;;;;;;4811176;29;20194;-73
2022/08/20 02:01:28;;;;;;;15.90;3.47;;;18.70;96.90;;;;;;4803099;29;20156;-73
2022/08/20 02:03:55;;;;;;;22.48;4.03;;;19.10;99.90;;;;;;4805539;29;20125;-72
2022/08/20 02:06:24;;;;;;;14.90;3.97;;;19.70;99.90;;;;;;4803254;29;20043;-73
2022/08/20 02:08:55;;;;;;;22.67;4.47;;;18.50;98.00;;;;;;4821982;29;20074;-73
2022/08/20 02:11:22;;;;;;;18.50;3.88;;;18.80;99.90;;;;;;4835397;29;20076;-73
2022/08/20 02:13:51;;;;;;;20.42;3.85;;;19.60;99.90;;;;;;4805497;29;20095;-73
2022/08/20 02:16:22;;;;;;;19.52;3.90;;;18.50;97.70;;;;;;4812309;29;20103;-73
2022/08/20 02:18:53;;;;;;;23.27;3.53;;;18.80;97.70;;;;;;4805720;29;20050;-72
2022/08/20 02:21:21;;;;;;;19.30;4.22;;;18.60;97.50;;;;;;4790639;29;20099;-73
2022/08/20 02:23:47;;;;;;;19.63;3.15;;;18.20;99.90;;;;;;4824449;29;20484;-72
2022/08/20 02:26:13;;;;;;;23.25;4.07;;;;;;;;;;4820233;29;20047;-72
2022/08/20 02:28:40;;;;;;;29.88;3.63;;;;;;;;;;4805414;29;20117;-72
2022/08/20 02:31:07;;;;;;;20.42;3.80;;;;;;;;;;4805544;29;20184;-73
2022/08/20 02:33:33;;;;;;;18.17;3.83;;;;;;;;;;4805702;29;20086;-73
2022/08/20 02:35:59;;;;;;;15.80;3.63;;;;;;;;;;4805330;29;20412;-73
2022/08/20 02:38:25;;;;;;;31.17;3.72;;;;;;;;;;4805499;29;20166;-73
2022/08/20 02:40:51;;;;;;;19.63;3.75;;;;;;;;;;4805355;29;20055;-73
2022/08/20 02:43:18;;;;;;;18.20;3.53;;;17.00;99.90;;;;;;4805050;29;20039;-73
2022/08/20 02:45:45;;;;;;;17.15;3.30;;;19.20;99.90;;;;;;4804996;29;20104;-73
2022/08/20 02:48:19;;;;;;;21.40;2.90;;;18.30;97.60;;;;;;4805154;29;20046;-73
2022/08/20 02:50:45;;;;;;;27.13;3.72;;;;;;;;;;4804737;29;20093;-73
2022/08/20 02:53:11;;;;;;;23.23;3.38;;;;;;;;;;4804723;29;20511;-73
2022/08/20 02:55:37;;;;;;;19.40;3.70;;;;;;;;;;4805215;29;20459;-73
2022/08/20 02:58:04;;;;;;;24.05;3.33;;;;;;;;;;4804847;29;20504;-73
2022/08/20 03:00:30;;;;;;;21.13;3.05;;;18.30;97.80;;;;;;4805013;29;20084;-73
2022/08/20 03:02:56;;;;;;;20.80;3.60;;;19.10;99.90;;;;;;4804235;29;20043;-72
2022/08/20 03:05:22;;;;;;;21.95;3.80;;;17.20;99.90;;;;;;4789857;29;20454;-73
2022/08/20 03:07:55;;;;;;;18.92;3.50;;;19.90;98.20;;;;;;4804776;29;20057;-73
2022/08/20 03:10:24;;;;;;;19.98;3.30;;;18.00;97.80;;;;;;4825365;29;20043;-73
2022/08/20 03:12:51;;;;;;;17.58;2.97;;;;;;;;;;4814489;29;20102;-73
2022/08/20 03:15:18;;;;;;;18.48;4.05;;;19.20;99.90;;;;;;4804563;29;20493;-72
2022/08/20 03:17:44;;;;;;;19.10;3.95;;;18.00;97.60;;;;;;4804590;29;20412;-72
2022/08/20 03:20:11;;;;;;;20.67;3.72;;;16.90;99.90;;;;;;4789491;29;20050;-72
2022/08/20 03:22:37;;;;;;;21.27;3.67;;;;;;;;;;4824250;29;20043;-72
2022/08/20 03:25:03;;;;;;;17.35;3.45;;;18.30;99.90;;;;;;4805157;29;20053;-72
2022/08/20 03:27:30;;;;;;;18.35;3.40;;;;;;;;;;4804857;29;20040;-72
2022/08/20 03:29:55;;;;;;;22.23;3.95;;;18.40;99.90;;;;;;4805759;29;20070;-72
2022/08/20 03:32:21;;;;;;;14.38;3.17;;;;;;;;;;4790520;29;20492;-73
2022/08/20 03:34:47;;;;;;;13.55;2.75;;;;;;;;;;4818884;29;20125;-72
2022/08/20 03:37:14;;;;;;;18.83;3.40;;;;;;;;;;4804544;29;20112;-72
2022/08/20 03:39:40;;;;;;;16.27;3.50;;;16.60;99.90;;;;;;4818134;29;20050;-72
2022/08/20 03:42:06;;;;;;;22.05;3.90;;;18.60;99.90;;;;;;4789674;29;20046;-73
2022/08/20 03:44:32;;;;;;;19.52;3.30;;;18.20;99.90;;;;;;4804132;29;20057;-73
2022/08/20 03:46:58;;;;;;;18.77;3.00;;;18.70;99.90;;;;;;4832330;29;20084;-73
2022/08/20 03:49:24;;;;;;;17.75;3.28;;;;;;;;;;4803985;29;20066;-72
2022/08/20 03:51:50;;;;;;;20.17;3.70;;;17.60;98.70;;;;;;4804023;29;20094;-73
2022/08/20 03:54:16;;;;;;;19.35;3.40;;;;;;;;;;4803857;29;20424;-72
2022/08/20 03:56:43;;;;;;;11.23;2.83;;;;;;;;;;4803772;29;20055;-72
2022/08/20 03:59:09;;;;;;;16.73;3.05;;;;;;;;;;4809081;29;20059;-72
2022/08/20 04:01:35;;;;;;;15.38;2.90;;;;;;;;;;4803840;29;20122;-73
2022/08/20 04:04:01;;;;;;;12.98;2.67;;;17.80;99.90;;;;;;4804067;29;20117;-72
2022/08/20 04:06:28;;;;;;;17.20;2.72;;;16.20;99.90;;;;;;4805053;29;20138;-72
2022/08/20 04:08:54;;;;;;;20.20;3.92;;;17.20;98.50;;;;;;4804001;29;20063;-73
2022/08/20 04:11:21;;;;;;;13.70;3.40;;;;;;;;;;4806958;29;20039;-72
2022/08/20 04:13:47;;;;;;;13.43;3.72;;;;;;;;;;4803800;29;20073;-72
2022/08/20 04:16:13;;;;;;;19.23;3.40;;;18.00;99.90;;;;;;4803954;29;20369;-73
2022/08/20 04:18:39;;;;;;;12.73;2.70;;;;;;;;;;4803793;29;20108;-72
2022/08/20 04:21:05;;;;;;;19.63;3.28;;;18.00;99.90;;;;;;4802944;29;20046;-73
2022/08/20 04:23:31;;;;;;;20.27;2.88;;;17.00;98.90;;;;;;4803341;29;20103;-72
2022/08/20 04:25:57;;;;;;;18.33;2.88;;;16.40;99.90;;;;;;4807251;29;20047;-72
2022/08/20 04:28:26;;;;;;;16.08;2.95;;;17.10;99.40;;;;;;4831516;29;20399;-73
2022/08/20 04:30:59;;;;;;;17.45;3.40;;;15.80;99.90;;;;;;4807600;29;20078;-71
2022/08/20 04:33:29;;;;;;;18.77;4.35;;;16.90;99.70;;;;;;4807415;29;20042;-75
2022/08/20 04:35:59;;;;;;;15.05;3.38;;;18.10;99.90;;;;;;4835510;29;20058;-73
2022/08/20 04:38:26;;;;;;;12.43;3.03;;;;;;;;;;4807228;29;20102;-72
2022/08/20 04:40:52;;;;;;;16.38;2.92;;;;;;;;;;4807206;29;20526;-73
2022/08/20 04:43:19;;;;;;;15.52;2.60;;;16.90;99.70;;;;;;4806965;29;20047;-73
2022/08/20 04:45:46;;;;;;;20.13;3.28;;;17.20;99.90;;;;;;4836880;29;20065;-73
2022/08/20 04:48:12;;;;;;;12.15;2.72;;;;;;;;;;4835609;29;20095;-73
2022/08/20 04:50:40;;;;;;;16.77;3.58;;;16.90;99.30;;;;;;4807768;29;20054;-73
2022/08/20 04:53:09;;;;;;;15.05;3.00;;;15.60;99.60;;;;;;4813168;29;20054;-73
2022/08/20 04:55:38;;;;;;;13.15;3.22;;;16.80;99.80;;;;;;4813487;29;20061;-73
2022/08/20 04:58:10;;;;;;;16.05;3.40;;;16.70;99.90;;;;;;4817091;29;20080;-73
2022/08/20 05:00:37;;;;;;;15.82;3.33;;;16.10;99.90;;;;;;4814069;29;20054;-73
2022/08/20 05:03:05;;;;;;;12.35;3.22;;;;;;;;;;4806998;29;20100;-73
2022/08/20 05:05:33;;;;;;;12.90;3.50;;;;;;;;;;4811817;29;20061;-72
2022/08/20 05:08:00;;;;;;;18.52;3.95;;;;;;;;;;4806967;29;20043;-75
2022/08/20 05:10:27;;;;;;;16.63;2.92;;;16.90;99.90;;;;;;4806601;29;20488;-73
2022/08/20 05:12:53;;;;;;;9.38;2.50;;;;;;;;;;4804374;29;20158;-73
2022/08/20 05:15:19;;;;;;;15.00;3.28;;;;;;;;;;4806572;29;20072;-73
2022/08/20 05:17:46;;;;;;;12.00;2.65;;;;;;;;;;4806578;29;20042;-72
2022/08/20 05:20:16;;;;;;;13.95;3.00;;;16.60;99.90;;;;;;4806820;29;20396;-73
2022/08/20 05:22:42;;;;;;;14.93;3.20;;;16.10;99.90;;;;;;4806418;29;20476;-72
2022/08/20 05:25:08;;;;;;;11.90;2.85;;;;;;;;;;4791367;29;20070;-73
2022/08/20 05:27:34;;;;;;;12.10;2.47;;;;;;;;;;4806294;29;20095;-72
2022/08/20 05:30:06;;;;;;;16.25;2.75;;;16.50;99.90;;;;;;4806392;29;20511;-73
2022/08/20 05:32:34;;;;;;;16.00;3.00;;;16.60;99.90;;;;;;4808356;29;20041;-73
2022/08/20 05:35:00;;;;;;;8.20;2.47;;;;;;;;;;4815277;29;20043;-74
2022/08/20 05:37:28;;;;;;;11.30;2.78;;;;;;;;;;4806436;29;20087;-72
2022/08/20 05:39:54;;;;;;;15.57;3.22;;;15.70;99.90;;;;;;4804333;29;20496;-72
2022/08/20 05:42:20;;;;;;;14.85;2.95;;;16.90;99.90;;;;;;4828699;29;20047;-73
2022/08/20 05:44:45;;;;;;;19.33;3.30;;;16.40;99.90;;;;;;4791126;29;20043;-72
2022/08/20 05:47:12;;;;;;;10.13;2.40;;;16.20;99.90;;;;;;4791129;29;20039;-73
2022/08/20 05:49:38;;;;;;;17.23;3.75;;;15.80;99.90;;;;;;4834538;29;20055;-73
2022/08/20 05:52:05;;;;;;;14.52;2.67;;;;;;;;;;4812504;29;20051;-73
2022/08/20 05:54:31;;;;;;;15.02;3.42;;;;;;;;;;4808386;29;20053;-73
2022/08/20 05:56:57;;;;;;;16.60;2.58;;;;;;;;;;4808975;29;20476;-73
2022/08/20 05:59:23;;;;;;;18.80;2.60;;;;;;;;;;4807455;29;20066;-75
2022/08/20 06:01:50;;;;;;;18.58;3.10;;;;;;;;;;4804680;29;20125;-73
2022/08/20 06:04:30;;;;;;;14.98;2.95;;;;;;;;;;4789186;29;20100;-73
2022/08/20 06:07:05;;;;;;;19.55;3.17;;;17.20;99.90;;;;;;4817055;29;20047;-73
2022/08/20 06:09:32;;;;;;;16.90;3.22;;;17.50;99.90;;;;;;4835197;29;20143;-73
2022/08/20 06:12:04;;;;;;;8.07;2.58;;;18.00;99.90;;;;;;4806019;29;20043;-73
2022/08/20 06:14:31;;;;;;;12.40;3.25;;;17.40;99.90;;;;;;4835273;29;20047;-73
2022/08/20 06:17:12;;;;;;;13.32;2.90;;;16.50;99.90;;;;;;4804721;29;20049;-73
2022/08/20 06:19:39;;;;;;;15.13;2.83;;;;;;;;;;4805617;29;20103;-73
2022/08/20 06:22:06;;;;;;;14.90;2.83;;;17.30;99.90;;;;;;4792715;29;20057;-73
2022/08/20 06:24:32;;;;;;;15.18;3.65;;;;;;;;;;4805579;29;20084;-73
2022/08/20 06:27:00;;;;;;;15.18;2.88;;;17.40;99.90;;;;;;4806877;29;20096;-73
2022/08/20 06:29:27;;;;;;;15.40;3.53;;;17.60;99.90;;;;;;4805649;29;20080;-73
2022/08/20 06:31:53;;;;;;;18.00;2.97;;;;;;;;;;4806692;29;20043;-73
2022/08/20 06:34:19;;;;;;;19.35;3.25;;;;;;;;;;4805535;29;20111;-76
2022/08/20 06:36:45;;;;;;;22.42;3.75;;;;;;;;;;4805611;29;20400;-72
2022/08/20 06:39:14;;;;;;;11.20;3.38;;;17.50;99.80;;;;;;4805267;29;20506;-73
2022/08/20 06:41:41;;;;;;;21.02;4.28;;;;;;;;;;4804359;29;20042;-72
2022/08/20 06:44:07;;;;;;;14.57;3.38;;;18.80;99.90;;;;;;4805241;29;20519;-73
2022/08/20 06:46:34;;;;;;;15.32;3.40;;;17.70;99.40;;;;;;4810470;29;20043;-73
2022/08/20 06:49:02;;;;;;;13.15;3.22;;;;;;;;;;4803704;29;20043;-73
2022/08/20 06:51:28;;;;;;;20.75;3.63;;;;;;;;;;4808480;29;20055;-72
2022/08/20 06:53:55;;;;;;;14.88;3.03;;;;;;;;;;4807497;29;20098;-73
2022/08/20 06:56:21;;;;;;;14.38;2.58;;;;;;;;;;4808310;29;20046;-73
2022/08/20 06:58:48;;;;;;;12.88;3.35;;;;;;;;;;4809607;29;20488;-73
2022/08/20 07:01:16;;;;;;;18.92;3.42;;;;;;;;;;4809932;29;20110;-73
2022/08/20 07:03:42;;;;;;;20.08;3.03;;;;;;;;;;4809671;29;20047;-73
2022/08/20 07:06:09;;;;;;;24.92;3.53;;;;;;;;;;4810014;29;20090;-73
2022/08/20 07:08:36;;;;;;;19.08;3.30;;;;;;;;;;4811648;29;20046;-73
2022/08/20 07:11:02;;;;;;;19.38;2.88;;;18.60;99.90;;;;;;4797951;29;20042;-73
2022/08/20 07:13:28;;;;;;;14.48;3.35;;;;;;;;;;4816970;29;20050;-73
2022/08/20 07:15:55;;;;;;;23.60;3.60;;;18.60;97.80;;;;;;4814927;29;20138;-73
2022/08/20 07:18:24;;;;;;;20.05;3.55;;;19.50;99.90;;;;;;4803906;29;20046;-73
2022/08/20 07:20:50;;;;;;;21.55;3.15;;;;;;;;;;4807919;29;20138;-73
2022/08/20 07:23:15;;;;;;;16.45;2.70;;;17.90;99.90;;;;;;4805203;29;20051;-73
2022/08/20 07:25:43;;;;;;;17.23;3.17;;;18.60;96.90;;;;;;4806951;29;20107;-73
2022/08/20 07:28:14;;;;;;;18.38;3.20;;;18.80;96.70;;;;;;4807357;29;20127;-73
2022/08/20 07:33:27;;;;;;;17.30;2.83;;;18.90;96.40;;;;;;4825568;29;20050;-76
2022/08/20 07:35:54;;;;;;;16.73;3.05;;;;;;;;;;4795069;29;20047;-73
2022/08/20 07:38:23;;;;;;;16.88;3.00;;;19.10;96.10;;;;;;4813537;29;20054;-73
2022/08/20 07:40:55;;;;;;;22.58;3.00;;;18.90;99.90;;;;;;4813734;29;20046;-73
2022/08/20 07:43:22;;;;;;;22.13;2.72;;;;;;;;;;4807276;29;20050;-73
2022/08/20 07:45:54;;;;;;;21.83;2.97;;;19.80;99.90;;;;;;4804916;29;20086;-73
2022/08/20 07:48:23;;;;;;;19.63;3.10;;;18.90;95.50;;;;;;4808077;29;20043;-73
2022/08/20 07:50:49;;;;;;;19.20;3.15;;;;;;;;;;4809280;29;20039;-73
2022/08/20 07:53:16;;;;;;;14.45;2.95;;;19.10;94.90;;;;;;4810515;29;20146;-73
2022/08/20 07:55:43;;;;;;;22.70;3.22;;;18.30;99.70;;;;;;4811168;29;20082;-73
2022/08/20 07:58:12;;;;;;;15.65;3.38;;;20.00;99.90;;;;;;4813462;29;20054;-73
2022/08/20 08:00:38;;;;;;;20.42;3.25;;;19.30;94.60;;;;;;4811650;29;20090;-73
2022/08/20 08:03:05;;;;;;;18.77;3.38;;;19.40;94.70;;;;;;4800446;29;20440;-74
2022/08/20 08:05:37;;;;;;;20.63;3.08;;;20.10;99.90;;;;;;4807671;29;20393;-73
2022/08/20 08:08:04;;;;;;;17.38;3.30;;;19.10;99.50;;;;;;4814847;29;20122;-73
2022/08/20 08:10:31;;;;;;;21.95;4.05;;;;;;;;;;4813708;29;20038;-73
2022/08/20 08:13:01;;;;;;;24.25;2.95;;;19.70;94.80;;;;;;4813231;29;20095;-73
2022/08/20 08:15:30;;;;;;;17.63;3.85;;;19.80;99.20;;;;;;4812480;29;20046;-73
2022/08/20 08:18:10;;;;;;;15.68;3.20;;;19.40;99.10;;;;;;4812266;29;20476;-73
2022/08/20 08:20:40;;;;;;;22.40;4.35;;;18.50;98.90;;;;;;4812327;29;20126;-73
2022/08/20 08:23:07;;;;;;;20.63;3.30;;;20.30;99.30;;;;;;4810773;29;20069;-73
2022/08/20 08:25:33;;;;;;;16.42;3.42;;;19.50;98.80;;;;;;4813986;29;20047;-73
2022/08/20 08:27:59;;;;;;;16.90;2.63;;;20.00;98.70;;;;;;4807729;29;20050;-73
2022/08/20 08:30:27;;;;;;;17.67;2.75;;;20.10;98.80;;;;;;4801188;29;20518;-73
2022/08/20 08:35:39;;;;;;;16.17;3.10;;;19.90;94.00;;;;;;4801005;29;20053;-73
2022/08/20 08:38:05;;;;;;;23.20;3.75;;;20.80;98.70;;;;;;4803924;29;20085;-73
2022/08/20 08:40:32;;;;;;;22.50;4.13;;;20.30;98.60;;;;;;4800820;29;20504;-73
2022/08/20 08:43:03;;;;;;;16.50;3.17;;;19.50;96.20;;;;;;4801196;29;20080;-73
2022/08/20 08:45:44;;;;;;;25.60;3.20;;;20.20;98.50;;;;;;4800193;29;20120;-73
2022/08/20 08:48:15;;;;;;;20.38;3.22;;;20.10;93.50;;;;;;4805728;29;20385;-74
2022/08/20 08:50:45;;;;;;;15.60;3.63;;;20.10;93.20;;;;;;4801657;29;20051;-74
2022/08/20 08:53:20;;;;;;;22.65;3.00;;;20.00;97.70;;;;;;4799974;29;20280;-74
2022/08/20 08:55:46;;;;;;;24.98;3.28;;;20.40;97.70;;;;;;4801462;29;20061;-74
2022/08/20 08:58:12;;;;;;;22.75;3.40;;;19.90;97.70;;;;;;4800850;29;20162;-73
2022/08/20 09:00:38;;;;;;;25.77;3.88;;;21.30;94.30;;;;;;4800713;29;20153;-73
2022/08/20 09:03:28;;;;;;;22.88;3.15;;;20.50;93.10;;;;;;4802365;29;20050;-73
2022/08/20 09:05:57;;;;;;;14.80;3.17;;;21.40;97.60;;;;;;4790073;29;20480;-73
2022/08/20 09:08:27;;;;;;;18.13;2.80;;;21.50;96.90;;;;;;4802260;29;20069;-73
2022/08/20 09:10:54;;;;;;;17.00;3.47;;;21.60;96.50;;;;;;4803523;29;20050;-74
2022/08/20 09:13:21;;;;;;;20.83;3.55;;;;;;;;;;4805032;29;20050;-74
2022/08/20 09:15:46;;;;;;;19.73;3.60;;;20.20;95.70;;;;;;4805833;29;20408;-74
2022/08/20 09:18:12;;;;;;;15.45;3.88;;;;;;;;;;4815272;29;20057;-74
2022/08/20 09:20:38;;;;;;;19.90;3.97;;;21.40;95.80;;;;;;4816620;29;20050;-73
2022/08/20 09:23:05;;;;;;;22.60;3.28;;;20.50;95.20;;;;;;4808120;29;20050;-74
2022/08/20 09:25:31;;;;;;;16.27;3.03;;;22.00;94.60;;;;;;4818759;29;20047;-74
2022/08/20 09:27:57;;;;;;;18.17;3.05;;;20.50;94.50;;;;;;4804844;29;20045;-73
2022/08/20 09:30:23;;;;;;;11.18;2.45;;;;;;;;;;4805012;29;20047;-74
2022/08/20 09:32:48;;;;;;;17.40;3.03;;;21.90;91.50;;;;;;4803816;29;20054;-73
2022/08/20 09:35:14;;;;;;;12.85;2.60;;;21.60;94.90;;;;;;4803713;29;20068;-71
2022/08/20 09:37:40;;;;;;;17.45;3.22;;;22.30;94.80;;;;;;4810666;29;20049;-73
2022/08/20 09:40:07;;;;;;;16.58;3.28;;;22.10;94.20;;;;;;4801169;29;20173;-74
2022/08/20 09:42:35;;;;;;;20.05;3.72;;;21.70;88.90;;;;;;4825268;29;20055;-73
2022/08/20 09:45:01;;;;;;;19.08;2.92;;;22.50;94.40;;;;;;4802684;29;20089;-73
2022/08/20 09:47:26;;;;;;;15.15;3.03;;;21.90;93.80;;;;;;4803300;29;20078;-73
2022/08/20 09:49:53;;;;;;;17.33;3.20;;;21.00;93.60;;;;;;4803040;29;20072;-73
2022/08/20 09:52:29;;;;;;;19.92;3.45;;;21.70;93.80;;;;;;4803441;29;20392;-73
2022/08/20 09:55:25;;;;;;;12.98;2.90;;;22.70;93.40;;;;;;4804341;29;20529;-73
2022/08/20 09:57:51;;;;;;;25.50;4.13;;;22.10;93.10;;;;;;4789473;29;20062;-73
2022/08/20 10:00:17;;;;;;;14.02;2.95;;;22.60;92.60;;;;;;4809979;29;20075;-72
2022/08/20 10:02:43;;;;;;;23.65;4.05;;;22.30;88.10;;;;;;4809050;29;20055;-73
2022/08/20 10:05:09;;;;;;;17.95;4.22;;;23.00;92.00;;;;;;4827864;29;20054;-72
2022/08/20 10:07:37;;;;;;;20.23;3.60;;;22.30;91.20;;;;;;4804431;29;20049;-72
2022/08/20 10:10:05;;;;;;;18.35;3.53;;;22.70;91.30;;;;;;4802775;29;20130;-73
2022/08/20 10:12:31;;;;;;;22.50;4.07;;;22.70;91.60;;;;;;4802851;29;20484;-72
2022/08/20 10:14:56;;;;;;;20.35;3.03;;;22.70;91.20;;;;;;4803794;29;20062;-73
2022/08/20 10:17:22;;;;;;;14.57;3.33;;;21.70;90.90;;;;;;4802889;29;20480;-73
2022/08/20 10:19:48;;;;;;;16.00;3.72;;;;;;;;;;4803044;29;20396;-73
2022/08/20 10:22:14;;;;;;;25.35;3.63;;;;;;;;;;4801659;29;20058;-73
2022/08/20 10:24:40;;;;;;;20.83;3.65;;;21.40;84.40;;;;;;4802101;29;20276;-73
2022/08/20 10:27:06;;;;;;;14.25;3.55;;;22.60;91.10;;;;;;4802631;29;20143;-74
2022/08/20 10:29:32;;;;;;;19.52;3.40;;;;;;;;;;4804113;29;20481;-73
2022/08/20 10:32:14;;;;;;;22.50;3.63;;;22.60;91.00;;;;;;4802605;29;20044;-73
2022/08/20 10:34:42;;;;;;;20.20;3.72;;;22.90;91.00;;;;;;4791547;29;20415;-73
2022/08/20 10:37:12;;;;;;;19.00;3.80;;;22.40;90.10;;;;;;4805759;29;20061;-73
2022/08/20 10:39:38;;;;;;;15.80;3.30;;;;;;;;;;4794513;29;20053;-73
2022/08/20 10:42:04;;;;;;;23.55;3.47;;;22.10;79.20;;;;;;4802157;29;20059;-73
2022/08/20 10:44:30;;;;;;;16.75;3.08;;;;;;;;;;4790417;29;20046;-73
2022/08/20 10:46:56;;;;;;;14.95;3.25;;;21.90;80.40;;;;;;4819637;29;20034;-73
2022/08/20 10:49:22;;;;;;;18.80;3.55;;;;;;;;;;4805532;29;20407;-74
2022/08/20 10:51:48;;;;;;;20.25;3.28;;;22.80;90.50;;;;;;4805287;29;20117;-73
2022/08/20 10:54:14;;;;;;;20.85;3.70;;;;;;;;;;4813692;29;20130;-74
2022/08/20 10:56:40;;;;;;;17.70;3.28;;;22.60;79.30;;;;;;4805074;29;20056;-74
2022/08/20 10:59:06;;;;;;;25.05;4.18;;;;;;;;;;4805379;29;20411;-74
2022/08/20 11:01:32;;;;;;;16.23;3.45;;;23.20;90.90;;;;;;4805347;29;20038;-73
2022/08/20 11:03:57;;;;;;;17.73;3.65;;;21.90;90.00;;;;;;4805503;29;20508;-74
2022/08/20 11:06:23;;;;;;;16.38;4.30;;;22.40;90.00;;;;;;4819618;29;20492;-74
2022/08/20 11:08:49;;;;;;;23.90;3.90;;;;;;;;;;4802559;29;20046;-74
2022/08/20 11:11:15;;;;;;;20.30;3.88;;;23.30;90.60;;;;;;4805136;29;20038;-74
2022/08/20 11:13:40;;;;;;;12.07;3.53;;;21.90;90.60;;;;;;4804960;29;20507;-73
2022/08/20 11:16:06;;;;;;;16.90;3.63;;;21.60;90.40;;;;;;4798618;29;20074;-74
2022/08/20 11:18:32;;;;;;;13.07;3.50;;;;;;;;;;4804913;29;20051;-74
2022/08/20 11:20:58;;;;;;;18.02;3.90;;;23.40;85.70;;;;;;4804691;29;20049;-74
2022/08/20 11:23:24;;;;;;;14.80;3.88;;;22.20;90.20;;;;;;4821223;29;20054;-73
2022/08/20 11:25:50;;;;;;;17.02;3.60;;;23.00;90.30;;;;;;4804380;29;20043;-74
2022/08/20 11:28:16;;;;;;;19.33;4.10;;;23.60;83.60;;;;;;4789893;29;20047;-74
2022/08/20 11:30:42;;;;;;;20.52;3.70;;;22.80;90.10;;;;;;4804679;29;20488;-74
2022/08/20 11:33:08;;;;;;;25.60;4.20;;;;;;;;;;4804339;29;20551;-74
2022/08/20 11:35:35;;;;;;;22.23;4.25;;;23.50;89.60;;;;;;4804630;29;20148;-73
2022/08/20 11:38:01;;;;;;;20.95;4.43;;;;;;;;;;4834419;29;20664;-74
2022/08/20 11:40:28;;;;;;;18.40;4.40;;;23.60;89.50;;;;;;4801733;29;20051;-74
2022/08/20 11:42:54;;;;;;;20.15;4.15;;;23.70;90.20;;;;;;4805779;29;20070;-74
2022/08/20 11:45:20;;;;;;;19.52;4.07;;;;;;;;;;4809343;29;20101;-73
2022/08/20 11:47:46;;;;;;;18.65;3.70;;;24.30;86.50;;;;;;4803838;29;20047;-74
2022/08/20 11:50:17;;;;;;;16.92;3.80;;;24.30;87.70;;;;;;4803967;29;20049;-73
2022/08/20 11:52:44;;;;;;;15.95;3.60;;;;;;;;;;4833776;29;20072;-72
2022/08/20 11:55:12;;;;;;;14.45;3.88;;;23.60;77.10;;;;;;4811172;29;20055;-74
2022/08/20 11:57:41;;;;;;;16.25;3.60;;;23.80;87.60;;;;;;4816231;29;20054;-74
2022/08/20 12:00:12;;;;;;;14.98;3.35;;;23.80;76.10;;;;;;4827481;29;20465;-74
2022/08/20 12:02:38;;;;;;;18.75;3.88;;;23.20;86.80;;;;;;4831890;29;20054;-74
2022/08/20 12:05:04;;;;;;;13.73;3.53;;;24.10;87.30;;;;;;4803345;29;20074;-73
2022/08/20 12:07:30;;;;;;;23.00;4.60;;;23.40;77.10;;;;;;4803570;29;20084;-72
2022/08/20 12:09:57;;;;;;;16.35;3.13;;;;;;;;;;4835334;29;20042;-74
2022/08/20 12:12:23;;;;;;;15.60;3.38;;;23.40;76.90;;;;;;4804944;29;20130;-74
2022/08/20 12:14:50;;;;;;;19.17;3.85;;;23.40;77.40;;;;;;4804085;29;20049;-73
2022/08/20 12:17:22;;;;;;;18.58;4.28;;;23.90;80.40;;;;;;4835432;29;20058;-74
2022/08/20 12:19:50;;;;;;;17.50;3.60;;;23.40;78.00;;;;;;4805067;29;20054;-73
2022/08/20 12:22:16;;;;;;;16.15;3.33;;;22.40;87.20;;;;;;4806077;29;20404;-73
2022/08/20 12:24:42;;;;;;;16.20;2.70;;;22.50;86.40;;;;;;4819996;29;20046;-73
2022/08/20 12:27:29;;;;;;;18.98;3.78;;;23.50;76.20;;;;;;4789839;29;20051;-74
2022/08/20 12:29:56;;;;;;;14.63;2.88;;;24.20;80.00;;;;;;4804722;29;20086;-74
2022/08/20 12:32:25;;;;;;;15.52;2.67;;;22.90;85.90;;;;;;4835222;29;20061;-73
2022/08/20 12:34:51;;;;;;;16.10;3.13;;;24.40;85.70;;;;;;4804903;29;20125;-74
2022/08/20 12:37:20;;;;;;;24.67;4.15;;;23.80;85.60;;;;;;4835127;29;20461;-74
2022/08/20 12:39:50;;;;;;;12.60;2.78;;;22.90;85.30;;;;;;4804839;29;20055;-74
2022/08/20 12:42:17;;;;;;;13.98;3.10;;;24.30;86.00;;;;;;4804846;29;20055;-74
2022/08/20 12:44:43;;;;;;;10.40;3.40;;;22.80;83.80;;;;;;4820064;29;20054;-73
2022/08/20 12:47:14;;;;;;;21.65;3.40;;;22.50;74.70;;;;;;4823763;29;20345;-73
2022/08/20 12:49:44;;;;;;;12.38;3.15;;;23.50;81.40;;;;;;4808281;29;20139;-73
2022/08/20 12:52:11;;;;;;;10.43;2.97;;;22.80;81.70;;;;;;4808538;29;20098;-73
2022/08/20 12:54:37;;;;;;;15.43;3.00;;;24.40;77.70;;;;;;4838655;29;20060;-73
2022/08/20 12:57:03;;;;;;;11.38;3.05;;;24.60;85.00;;;;;;4838571;29;20076;-73
2022/08/20 12:59:29;;;;;;;16.77;4.03;;;23.90;73.10;;;;;;4823454;29;20050;-71
2022/08/20 13:01:55;;;;;;;15.55;3.15;;;24.50;77.00;;;;;;4810405;29;20111;-73
2022/08/20 13:04:21;;;;;;;12.13;2.88;;;24.40;83.90;;;;;;4792862;29;20043;-73
2022/08/20 13:06:47;;;;;;;15.60;3.30;;;24.10;83.70;;;;;;4807869;29;20050;-73
2022/08/20 13:09:14;;;;;;;17.63;2.95;;;23.80;73.80;;;;;;4807956;29;20561;-74
2022/08/20 13:11:40;;;;;;;14.75;3.50;;;24.50;84.20;;;;;;4812002;29;20045;-73
2022/08/20 13:14:06;;;;;;;11.38;3.28;;;24.30;82.90;;;;;;4799655;29;20047;-73